Time;durP1;ratioP1;P1;durP2;ratioP2;P2;SDS_P1;SDS_P2;PMS_P1;PMS_P2;Temp;Humidity;BMP_temperature;BMP_pressure;BME280_temperature;BME280_humidity;BME280_pressure;Samples;Min_cycle;Max_cycle;Signal;HPM_P1;HPM_P2
2023/12/24 07:43:17;;;;;;;8.23;3.53;;;0.80;99.90;;;;;;2609773;54;20018;31
2023/12/24 07:45:55;;;;;;;6.10;2.50;;;0.80;99.90;;;;;;2602537;54;20853;31
2023/12/24 07:54:41;;;;;;;4.95;2.75;;;0.80;99.90;;;;;;2610541;54;20037;31
2023/12/24 08:09:41;;;;;;;3.95;1.95;;;0.70;99.90;;;;;;2620126;46;20108;31
2023/12/24 08:12:18;;;;;;;5.82;1.98;;;0.70;99.90;;;;;;2601978;54;20034;31
2023/12/24 08:14:58;;;;;;;5.55;2.42;;;0.70;99.90;;;;;;2602377;54;20048;31
2023/12/24 08:17:34;;;;;;;4.47;2.03;;;0.60;99.90;;;;;;2602436;54;20086;31
2023/12/24 08:20:14;;;;;;;3.93;1.50;;;0.70;99.90;;;;;;2602897;54;20105;31
2023/12/24 08:25:51;;;;;;;5.65;2.38;;;0.80;99.90;;;;;;2601794;54;20068;31
2023/12/24 08:28:28;;;;;;;5.25;2.45;;;0.90;99.90;;;;;;2602756;54;20735;31
2023/12/24 08:54:19;;;;;;;7.55;3.13;;;0.80;99.90;;;;;;2602325;54;20034;31
2023/12/24 08:56:55;;;;;;;7.47;2.60;;;0.90;99.90;;;;;;2602396;54;20037;31
2023/12/24 08:59:31;;;;;;;6.55;3.17;;;0.80;99.90;;;;;;2602358;54;21089;31
2023/12/24 09:05:11;;;;;;;8.43;3.60;;;0.90;99.90;;;;;;2601965;54;20049;31
2023/12/24 09:11:00;;;;;;;6.03;3.57;;;0.90;99.90;;;;;;2601233;54;20883;31
2023/12/24 09:13:38;;;;;;;7.53;3.90;;;0.90;99.90;;;;;;2601712;54;20125;31
2023/12/24 09:16:15;;;;;;;8.20;4.00;;;0.90;99.90;;;;;;2602492;54;20253;31
2023/12/24 09:18:53;;;;;;;8.00;3.90;;;1.00;99.90;;;;;;2602513;54;20053;31
2023/12/24 09:21:30;;;;;;;10.00;4.43;;;1.00;99.90;;;;;;2602927;54;20887;31
2023/12/24 09:24:07;;;;;;;12.23;4.22;;;1.00;99.90;;;;;;2603438;54;20026;31
2023/12/24 09:26:46;;;;;;;9.35;4.70;;;1.00;99.90;;;;;;2603306;54;20056;31
2023/12/24 09:32:30;;;;;;;7.20;3.83;;;1.00;99.90;;;;;;2927514;46;20015;31
2023/12/24 09:43:24;;;;;;;9.65;4.30;;;1.10;99.90;;;;;;2603567;54;20050;31
2023/12/24 09:46:02;;;;;;;9.57;4.75;;;1.20;99.90;;;;;;2603147;54;20037;31
2023/12/24 09:48:41;;;;;;;10.63;4.63;;;1.20;99.90;;;;;;2603218;54;20037;31
2023/12/24 09:51:21;;;;;;;9.27;5.35;;;1.20;99.90;;;;;;2603313;54;20030;31
2023/12/24 09:53:59;;;;;;;15.97;5.73;;;1.20;99.90;;;;;;2603170;54;19934;31
2023/12/24 09:56:35;;;;;;;14.45;6.00;;;1.30;99.90;;;;;;2602526;54;21198;31
2023/12/24 09:59:18;;;;;;;18.30;6.88;;;1.30;99.90;;;;;;2603270;54;20897;31
2023/12/24 10:01:58;;;;;;;13.57;6.78;;;1.30;99.90;;;;;;2603170;54;20871;31
2023/12/24 10:04:33;;;;;;;15.48;8.25;;;1.40;99.90;;;;;;2621470;46;20026;31
2023/12/24 10:13:35;;;;;;;11.80;6.40;;;1.50;99.90;;;;;;2610481;54;20034;31
2023/12/24 10:16:13;;;;;;;14.55;6.95;;;1.60;99.90;;;;;;2621078;46;20038;31
2023/12/24 10:18:54;;;;;;;14.87;7.03;;;1.60;99.90;;;;;;2603067;54;21004;31
2023/12/24 10:24:12;;;;;;;18.80;6.70;;;1.70;99.90;;;;;;2602264;54;20923;31
2023/12/24 10:26:49;;;;;;;13.48;6.65;;;1.80;99.90;;;;;;2701611;39;20788;31
2023/12/24 10:29:27;;;;;;;14.27;6.47;;;1.90;99.90;;;;;;2602378;54;20037;31
2023/12/24 10:32:02;;;;;;;12.77;6.78;;;1.90;99.90;;;;;;2602313;54;20900;31
2023/12/24 10:34:42;;;;;;;16.15;6.45;;;2.00;99.90;;;;;;2621530;46;20026;31
2023/12/24 10:46:41;;;;;;;13.80;7.75;;;2.40;99.90;;;;;;2610956;54;20018;31
2023/12/24 10:52:10;;;;;;;12.70;6.65;;;2.50;99.90;;;;;;2602900;54;20058;31
2023/12/24 10:54:50;;;;;;;14.10;6.05;;;2.60;99.90;;;;;;2602296;46;21095;31
2023/12/24 10:57:33;;;;;;;10.77;6.50;;;2.70;99.90;;;;;;2603173;54;20864;31
2023/12/24 11:00:12;;;;;;;14.25;7.00;;;2.70;99.90;;;;;;2602745;54;20026;31
2023/12/24 11:02:50;;;;;;;18.75;7.72;;;2.80;99.90;;;;;;2607598;46;20022;31
2023/12/24 11:05:51;;;;;;;12.68;7.55;;;2.90;99.90;;;;;;2603032;54;20033;31
2023/12/24 11:08:38;;;;;;;14.05;6.75;;;3.00;99.90;;;;;;2603034;54;20031;31
2023/12/24 11:13:58;;;;;;;17.23;8.93;;;3.10;99.90;;;;;;2602972;54;20037;31
2023/12/24 11:16:46;;;;;;;17.27;8.93;;;3.20;99.90;;;;;;2602803;54;20136;31
2023/12/24 11:19:47;;;;;;;18.45;9.70;;;3.30;99.90;;;;;;2603068;54;20031;31
2023/12/24 11:43:41;;;;;;;18.70;9.18;;;4.00;99.90;;;;;;2610575;54;20019;31
2023/12/24 12:04:00;;;;;;;16.10;7.82;;;4.40;99.90;;;;;;2601675;54;20042;31
2023/12/24 12:06:38;;;;;;;17.88;8.80;;;4.50;99.90;;;;;;2601816;54;20884;31
2023/12/24 12:09:15;;;;;;;18.63;9.73;;;4.50;99.90;;;;;;2602078;54;20747;31
2023/12/24 12:11:54;;;;;;;15.80;8.43;;;4.60;99.90;;;;;;2601967;54;20041;31
2023/12/24 12:17:29;;;;;;;16.65;8.50;;;4.70;99.90;;;;;;2602776;54;20026;31
2023/12/24 12:20:25;;;;;;;18.27;8.48;;;4.70;99.90;;;;;;2602837;54;20850;31
2023/12/24 12:23:03;;;;;;;17.20;10.13;;;4.80;99.90;;;;;;2621068;47;20883;31
2023/12/24 12:34:44;;;;;;;15.88;7.07;;;5.00;99.90;;;;;;2601497;54;20023;31
2023/12/24 12:53:19;;;;;;;9.30;4.20;;;5.20;99.90;;;;;;2601634;54;20898;31
2023/12/24 12:56:08;;;;;;;9.25;4.63;;;5.20;99.90;;;;;;2612865;47;20242;31
2023/12/24 13:20:53;;;;;;;7.90;3.00;;;5.70;99.90;;;;;;2610501;54;20027;31
2023/12/24 13:26:37;;;;;;;7.03;3.20;;;5.70;99.90;;;;;;2611105;54;20049;31
2023/12/24 13:29:14;;;;;;;6.70;3.20;;;5.70;99.90;;;;;;2702877;39;21122;31
2023/12/24 13:50:50;;;;;;;5.03;2.13;;;6.20;99.90;;;;;;2602241;54;20913;31
2023/12/24 13:56:36;;;;;;;3.83;1.67;;;6.30;99.90;;;;;;2610377;54;20015;31
2023/12/24 14:15:12;;;;;;;3.53;1.10;;;6.60;99.90;;;;;;2609956;54;20039;31
2023/12/24 14:26:55;;;;;;;2.25;0.90;;;6.90;99.90;;;;;;2610660;54;20018;31
2023/12/24 14:29:41;;;;;;;1.40;0.82;;;6.90;99.90;;;;;;2602042;54;20891;31
2023/12/24 14:32:20;;;;;;;2.45;1.15;;;7.00;99.90;;;;;;2602312;54;20760;31
2023/12/24 14:34:56;;;;;;;;;;;7.00;99.90;;;;;;2720107;39;20503;31
2023/12/24 14:37:35;;;;;;;2.50;1.10;;;7.00;99.90;;;;;;2617237;46;20690;31
2023/12/24 14:40:13;;;;;;;3.38;1.17;;;7.10;99.90;;;;;;2602939;54;20038;31
2023/12/24 14:42:54;;;;;;;3.80;1.17;;;7.20;99.90;;;;;;2621223;46;21886;31
2023/12/24 14:45:30;;;;;;;3.25;1.50;;;7.20;99.90;;;;;;2602755;54;20030;31
2023/12/24 14:48:14;;;;;;;5.00;1.20;;;7.20;99.90;;;;;;2602891;54;20019;31
2023/12/24 14:50:50;;;;;;;3.10;1.25;;;7.20;99.90;;;;;;2621388;46;20049;31
2023/12/24 14:53:25;;;;;;;3.40;1.55;;;7.30;99.90;;;;;;2601971;54;20861;31
2023/12/24 14:56:00;;;;;;;2.70;1.37;;;7.30;99.90;;;;;;2602638;54;20053;31
2023/12/24 14:58:38;;;;;;;4.93;1.57;;;7.30;99.90;;;;;;2602824;54;21106;31
2023/12/24 15:01:12;;;;;;;3.35;0.80;;;7.40;99.90;;;;;;2602732;54;20050;31
2023/12/24 15:03:47;;;;;;;2.03;0.60;;;7.40;99.90;;;;;;2602672;54;20889;31
2023/12/24 15:06:22;;;;;;;3.10;1.17;;;7.40;99.90;;;;;;2602830;54;20254;31
2023/12/24 15:08:57;;;;;;;4.05;1.70;;;7.50;99.90;;;;;;2602706;54;21204;31
2023/12/24 15:11:32;;;;;;;4.10;1.65;;;7.50;99.90;;;;;;2602844;54;20766;31
2023/12/24 15:14:10;;;;;;;3.25;1.15;;;7.50;99.90;;;;;;2621054;46;20884;31
2023/12/24 15:16:44;;;;;;;2.40;1.05;;;7.50;99.90;;;;;;2602707;54;20022;31
2023/12/24 15:19:18;;;;;;;3.65;1.27;;;7.60;99.90;;;;;;2621166;46;20892;31
2023/12/24 15:21:56;;;;;;;3.40;1.30;;;7.60;99.90;;;;;;2620932;46;20802;31
2023/12/24 15:24:30;;;;;;;4.88;1.40;;;7.70;99.90;;;;;;2602981;54;20841;31
2023/12/24 15:27:04;;;;;;;2.45;1.20;;;7.60;99.90;;;;;;2602577;54;20030;31
2023/12/24 15:29:42;;;;;;;4.20;1.17;;;7.70;99.90;;;;;;2602776;54;20090;31
2023/12/24 15:32:16;;;;;;;4.03;1.60;;;7.70;99.90;;;;;;2602747;54;20052;31
2023/12/24 15:34:51;;;;;;;3.38;1.05;;;7.70;99.90;;;;;;2621441;46;21183;31
2023/12/24 15:37:26;;;;;;;5.50;1.70;;;7.70;99.90;;;;;;2701199;39;21286;31
2023/12/24 15:40:02;;;;;;;3.80;1.70;;;7.80;99.90;;;;;;2602773;54;20884;31
2023/12/24 15:42:36;;;;;;;3.63;1.73;;;7.80;99.90;;;;;;2621143;46;20026;31
2023/12/24 15:45:14;;;;;;;2.75;1.35;;;7.80;99.90;;;;;;2602649;54;20038;31
2023/12/24 15:47:49;;;;;;;2.88;1.23;;;7.90;99.90;;;;;;2602451;54;20780;31
2023/12/24 15:50:25;;;;;;;2.90;1.10;;;7.90;99.90;;;;;;2602445;54;20113;31
2023/12/24 15:53:00;;;;;;;3.53;1.65;;;7.90;99.90;;;;;;2602693;54;20932;31
2023/12/24 15:55:35;;;;;;;4.80;1.85;;;7.90;99.90;;;;;;2602659;54;20052;31
2023/12/24 15:58:09;;;;;;;5.93;1.93;;;7.90;99.90;;;;;;2621305;46;20911;31
2023/12/24 16:00:46;;;;;;;2.80;1.10;;;8.00;99.90;;;;;;2620888;46;20057;31
2023/12/24 16:03:22;;;;;;;3.85;1.13;;;7.90;99.90;;;;;;2602674;54;20916;31
2023/12/24 16:05:57;;;;;;;4.45;1.40;;;8.00;99.90;;;;;;2602769;54;20851;31
2023/12/24 16:08:32;;;;;;;5.57;1.13;;;8.00;99.90;;;;;;2621188;46;20915;31
2023/12/24 16:11:07;;;;;;;1.33;0.90;;;8.00;99.90;;;;;;2602651;54;20900;31
2023/12/24 16:13:42;;;;;;;4.90;1.20;;;8.10;99.90;;;;;;2620819;46;20777;31
2023/12/24 16:16:20;;;;;;;3.33;1.40;;;8.10;99.90;;;;;;2602645;54;20868;31
2023/12/24 16:18:54;;;;;;;3.60;1.10;;;8.10;99.90;;;;;;2602418;54;20203;31
2023/12/24 16:21:29;;;;;;;3.33;1.17;;;8.10;99.90;;;;;;2602325;54;20052;31
2023/12/24 16:24:10;;;;;;;2.40;1.10;;;8.10;99.90;;;;;;2621234;47;20794;31
2023/12/24 16:26:44;;;;;;;2.30;0.90;;;8.20;99.90;;;;;;2620898;47;20029;31
2023/12/24 16:29:22;;;;;;;4.50;1.20;;;8.20;99.90;;;;;;2602843;54;20853;31
2023/12/24 16:31:59;;;;;;;1.92;0.75;;;8.20;99.90;;;;;;2603187;54;20030;31
2023/12/24 16:34:33;;;;;;;3.05;0.90;;;8.20;99.90;;;;;;2621690;46;20037;31
2023/12/24 16:37:07;;;;;;;3.50;1.30;;;8.20;99.90;;;;;;2603254;54;20855;31
2023/12/24 16:39:44;;;;;;;4.25;1.10;;;8.20;99.90;;;;;;2621550;46;20109;31
2023/12/24 16:42:18;;;;;;;4.60;1.45;;;8.20;99.90;;;;;;2603325;54;20739;31
2023/12/24 16:44:53;;;;;;;3.25;1.60;;;8.20;99.90;;;;;;2603068;54;20843;31
2023/12/24 16:47:31;;;;;;;3.80;1.20;;;8.20;99.90;;;;;;2772961;31;20408;31
2023/12/24 16:50:06;;;;;;;5.13;1.40;;;8.30;99.90;;;;;;2603319;54;20031;31
2023/12/24 16:52:40;;;;;;;6.50;2.00;;;8.30;99.90;;;;;;2603101;54;20741;31
2023/12/24 16:55:15;;;;;;;4.03;1.40;;;8.20;99.90;;;;;;2603083;54;20896;31
2023/12/24 16:57:50;;;;;;;3.05;1.17;;;8.30;99.90;;;;;;2602898;54;20073;31
2023/12/24 17:00:26;;;;;;;3.28;1.55;;;8.30;99.90;;;;;;2603272;54;20026;31
2023/12/24 17:03:06;;;;;;;3.55;1.70;;;8.30;99.90;;;;;;2603189;54;20026;31
2023/12/24 17:05:41;;;;;;;4.15;1.30;;;8.30;99.90;;;;;;2603209;54;20846;31
2023/12/24 17:08:16;;;;;;;4.20;1.60;;;8.30;99.90;;;;;;2603062;54;20870;31
2023/12/24 17:10:51;;;;;;;3.50;1.60;;;8.30;99.90;;;;;;2603187;54;20868;31
2023/12/24 17:13:26;;;;;;;5.10;1.70;;;8.30;99.90;;;;;;2603245;54;20033;31
2023/12/24 17:16:01;;;;;;;4.97;1.38;;;8.40;99.90;;;;;;2603187;54;20750;31
2023/12/24 17:18:38;;;;;;;4.60;1.25;;;8.40;99.90;;;;;;2602907;54;20030;31
2023/12/24 17:21:12;;;;;;;3.60;1.08;;;8.40;99.90;;;;;;2602982;54;20765;31
2023/12/24 17:23:46;;;;;;;4.03;1.25;;;8.40;99.90;;;;;;2603174;54;20027;31
2023/12/24 17:26:21;;;;;;;2.95;1.10;;;8.40;99.90;;;;;;2603179;54;20873;31
2023/12/24 17:28:56;;;;;;;5.35;1.30;;;8.40;99.90;;;;;;2602954;54;20743;31
2023/12/24 17:31:31;;;;;;;3.80;1.05;;;8.40;99.90;;;;;;2621395;46;20061;31
2023/12/24 17:34:09;;;;;;;3.45;1.15;;;8.40;99.90;;;;;;2603058;54;20152;31
2023/12/24 17:36:44;;;;;;;4.25;1.40;;;8.40;99.90;;;;;;2603054;54;20111;31
2023/12/24 17:39:18;;;;;;;4.93;1.50;;;8.40;99.90;;;;;;2602816;54;20056;31
2023/12/24 17:41:52;;;;;;;3.47;1.47;;;8.40;99.90;;;;;;2603002;54;20234;31
2023/12/24 17:44:27;;;;;;;3.92;1.60;;;8.40;99.90;;;;;;2602989;54;20241;31
2023/12/24 17:47:02;;;;;;;4.50;2.00;;;8.40;99.90;;;;;;2603075;54;20885;31
2023/12/24 17:49:40;;;;;;;3.67;1.38;;;8.40;99.90;;;;;;2602989;54;20933;31
2023/12/24 17:52:15;;;;;;;4.32;1.58;;;8.40;99.90;;;;;;2602871;54;20202;31
2023/12/24 17:54:49;;;;;;;5.53;1.90;;;8.50;99.90;;;;;;2602709;54;20029;31
2023/12/24 17:57:24;;;;;;;4.07;1.47;;;8.40;99.90;;;;;;2602902;54;20030;31
2023/12/24 18:00:04;;;;;;;2.97;1.00;;;8.40;99.90;;;;;;2602863;54;20250;31
2023/12/24 18:02:38;;;;;;;3.95;1.30;;;8.40;99.90;;;;;;2603026;54;20241;31
2023/12/24 18:05:16;;;;;;;5.15;1.70;;;8.40;99.90;;;;;;2603079;54;20769;31
2023/12/24 18:07:50;;;;;;;2.63;0.98;;;8.40;99.90;;;;;;2602970;54;20076;31
2023/12/24 18:10:25;;;;;;;2.00;0.90;;;8.50;99.90;;;;;;2621412;46;20873;31
2023/12/24 18:13:00;;;;;;;2.65;1.20;;;8.50;99.90;;;;;;2603005;54;20057;31
2023/12/24 18:15:35;;;;;;;2.83;0.88;;;8.50;99.90;;;;;;2603027;54;20081;31
2023/12/24 18:18:09;;;;;;;4.35;1.35;;;8.50;99.90;;;;;;2602885;54;20791;31
2023/12/24 18:20:47;;;;;;;2.47;0.95;;;8.50;99.90;;;;;;2602814;54;20030;31
2023/12/24 18:23:21;;;;;;;3.15;1.20;;;8.50;99.90;;;;;;2621416;46;20942;31
2023/12/24 18:25:57;;;;;;;3.50;1.25;;;8.50;99.90;;;;;;2701239;39;20577;31
2023/12/24 18:28:34;;;;;;;2.10;0.80;;;8.50;99.90;;;;;;2602693;54;20022;31
2023/12/24 18:31:08;;;;;;;2.85;1.05;;;8.50;99.90;;;;;;2602799;54;20999;31
2023/12/24 18:33:43;;;;;;;2.30;1.00;;;8.50;99.90;;;;;;2602737;54;20775;31
2023/12/24 18:36:24;;;;;;;3.22;0.90;;;8.50;99.90;;;;;;2602806;54;20026;31
2023/12/24 18:39:02;;;;;;;2.72;0.85;;;8.50;99.90;;;;;;2602729;54;20858;31
2023/12/24 18:41:35;;;;;;;2.67;1.00;;;8.60;99.90;;;;;;2602947;54;20846;31
2023/12/24 18:44:10;;;;;;;2.88;0.93;;;8.50;99.90;;;;;;2602734;54;20033;31
2023/12/24 18:46:48;;;;;;;4.75;1.05;;;8.50;99.90;;;;;;2621258;46;20026;31
2023/12/24 18:49:22;;;;;;;2.93;0.80;;;8.50;99.90;;;;;;2602629;54;20027;31
2023/12/24 18:52:00;;;;;;;3.50;1.37;;;8.50;99.90;;;;;;2602656;54;20030;31
2023/12/24 18:54:35;;;;;;;3.15;1.20;;;8.50;99.90;;;;;;2602506;54;21099;31
2023/12/24 18:57:11;;;;;;;2.80;1.00;;;8.50;99.90;;;;;;2621477;46;20869;31
2023/12/24 18:59:45;;;;;;;1.85;0.90;;;8.50;99.90;;;;;;2602499;54;20022;31
2023/12/24 19:02:20;;;;;;;2.30;0.90;;;8.50;99.90;;;;;;2602855;54;20046;31
2023/12/24 19:04:55;;;;;;;3.87;1.30;;;8.50;99.90;;;;;;2602666;54;20724;31
2023/12/24 19:07:33;;;;;;;3.75;1.20;;;8.50;99.90;;;;;;2602406;54;20089;31
2023/12/24 19:10:08;;;;;;;2.53;0.90;;;8.60;99.90;;;;;;2602895;54;20892;31
2023/12/24 19:12:43;;;;;;;2.45;0.95;;;8.60;99.90;;;;;;2620887;46;20907;31
2023/12/24 19:15:18;;;;;;;3.40;1.10;;;8.60;99.90;;;;;;2602892;54;20811;31
2023/12/24 19:17:52;;;;;;;2.92;0.90;;;8.60;99.90;;;;;;2602768;54;20035;31
2023/12/24 19:20:27;;;;;;;5.38;1.15;;;8.60;99.90;;;;;;2621174;46;20889;31
2023/12/24 19:23:04;;;;;;;3.03;0.90;;;8.60;99.90;;;;;;2620905;46;20888;31
2023/12/24 19:25:38;;;;;;;2.33;0.85;;;8.60;99.90;;;;;;2602486;54;20064;31
2023/12/24 19:28:13;;;;;;;2.20;1.20;;;8.70;99.90;;;;;;2700926;39;20389;31
2023/12/24 19:30:47;;;;;;;3.83;0.90;;;8.70;99.90;;;;;;2602629;54;20845;31
2023/12/24 19:33:22;;;;;;;2.65;0.70;;;8.70;99.90;;;;;;2602648;54;20774;31
2023/12/24 19:36:00;;;;;;;2.03;0.90;;;8.70;99.90;;;;;;2621002;46;20042;31
2023/12/24 19:38:34;;;;;;;2.83;0.90;;;8.70;99.90;;;;;;2602527;54;20925;31
2023/12/24 19:41:12;;;;;;;3.35;0.70;;;8.70;99.90;;;;;;2602674;54;20029;31
2023/12/24 19:43:48;;;;;;;3.33;0.70;;;8.70;99.90;;;;;;2602561;54;20030;31
2023/12/24 19:46:24;;;;;;;3.78;1.20;;;8.70;99.90;;;;;;2602720;54;20053;31
2023/12/24 19:49:00;;;;;;;2.15;0.93;;;8.80;99.90;;;;;;2621399;46;20882;31
2023/12/24 19:51:35;;;;;;;1.90;0.75;;;8.80;99.90;;;;;;2602598;54;20877;31
2023/12/24 19:54:10;;;;;;;3.40;1.15;;;8.80;99.90;;;;;;2602696;54;20749;31
2023/12/24 19:56:47;;;;;;;2.67;0.88;;;8.80;99.90;;;;;;2602388;54;20053;31
2023/12/24 19:59:25;;;;;;;3.65;1.00;;;8.80;99.90;;;;;;2602461;54;20941;31
2023/12/24 20:01:59;;;;;;;3.05;0.75;;;8.80;99.90;;;;;;2602545;54;20856;31
2023/12/24 20:04:38;;;;;;;2.47;0.90;;;8.70;99.90;;;;;;2602706;54;20026;31
2023/12/24 20:07:12;;;;;;;2.95;0.77;;;8.60;99.90;;;;;;2602590;54;20093;31
2023/12/24 20:09:47;;;;;;;3.15;0.90;;;8.60;99.90;;;;;;2621162;46;20955;31
2023/12/24 20:12:25;;;;;;;2.75;0.90;;;8.60;99.90;;;;;;2602588;54;20026;31
2023/12/24 20:14:59;;;;;;;3.10;1.07;;;8.50;99.90;;;;;;2602446;54;20865;31
2023/12/24 20:17:32;;;;;;;3.60;0.97;;;8.50;99.90;;;;;;2602544;54;21903;31
2023/12/24 20:20:08;;;;;;;3.28;0.90;;;8.50;99.90;;;;;;2602365;54;20253;31
2023/12/24 20:22:43;;;;;;;3.88;1.30;;;8.50;99.90;;;;;;2602414;54;20082;31
2023/12/24 20:25:18;;;;;;;2.95;0.80;;;8.50;99.90;;;;;;2602329;54;20090;31
2023/12/24 20:27:55;;;;;;;3.90;1.05;;;8.50;99.90;;;;;;2620698;47;20899;31
2023/12/24 20:30:29;;;;;;;2.90;0.97;;;8.40;99.90;;;;;;2602371;54;21046;31
2023/12/24 20:33:07;;;;;;;2.25;0.85;;;8.50;99.90;;;;;;2602504;54;20966;31
2023/12/24 20:35:43;;;;;;;1.23;0.57;;;8.50;99.90;;;;;;2602455;54;20910;31
2023/12/24 20:38:19;;;;;;;2.40;0.80;;;8.40;99.90;;;;;;2602412;54;20064;31
2023/12/24 20:40:53;;;;;;;3.20;0.90;;;8.40;99.90;;;;;;2602535;54;20829;31
2023/12/24 20:43:32;;;;;;;3.37;1.07;;;8.50;99.90;;;;;;2700812;39;21102;31
2023/12/24 20:46:07;;;;;;;2.05;0.88;;;8.50;99.90;;;;;;2602049;54;20133;31
2023/12/24 20:48:43;;;;;;;2.17;1.00;;;8.50;99.90;;;;;;2602505;54;20735;31
2023/12/24 20:51:21;;;;;;;2.70;0.90;;;8.50;99.90;;;;;;2602443;54;20037;31
2023/12/24 20:53:54;;;;;;;2.05;0.80;;;8.50;99.90;;;;;;2602436;54;21174;31
2023/12/24 20:56:30;;;;;;;2.92;0.80;;;8.50;99.90;;;;;;2700505;39;21303;31
2023/12/24 20:59:09;;;;;;;2.42;0.80;;;8.50;99.90;;;;;;2621141;47;20735;31
2023/12/24 21:01:44;;;;;;;2.05;0.50;;;8.50;99.90;;;;;;2602494;54;20026;31
2023/12/24 21:04:19;;;;;;;1.90;0.70;;;8.50;99.90;;;;;;2602496;54;20026;31
2023/12/24 21:06:55;;;;;;;1.10;0.60;;;8.50;99.90;;;;;;2771829;31;21392;31
2023/12/24 21:09:30;;;;;;;2.30;1.10;;;8.50;99.90;;;;;;2602381;54;20870;31
2023/12/24 21:12:04;;;;;;;1.73;0.70;;;8.50;99.90;;;;;;2602230;54;20026;31
2023/12/24 21:14:42;;;;;;;3.20;1.15;;;8.50;99.90;;;;;;2602307;54;21132;31
2023/12/24 21:17:17;;;;;;;3.38;0.77;;;8.50;99.90;;;;;;2602760;54;20029;31
2023/12/24 21:19:51;;;;;;;2.53;1.05;;;8.50;99.90;;;;;;2621565;46;20030;31
2023/12/24 21:22:26;;;;;;;2.00;0.80;;;8.50;99.90;;;;;;2603281;54;20030;31
2023/12/24 21:25:01;;;;;;;2.10;0.85;;;8.50;99.90;;;;;;2621437;46;20026;31
2023/12/24 21:27:37;;;;;;;2.92;1.15;;;8.50;99.90;;;;;;2772924;31;21400;31
2023/12/24 21:30:16;;;;;;;4.43;0.88;;;8.50;99.90;;;;;;2603030;54;20034;31
2023/12/24 21:32:54;;;;;;;2.15;1.00;;;8.50;99.90;;;;;;2603075;54;20086;31
2023/12/24 21:35:29;;;;;;;2.53;0.75;;;8.50;99.90;;;;;;2603011;54;20532;31
2023/12/24 21:38:04;;;;;;;1.80;0.70;;;8.50;99.90;;;;;;2621469;46;20137;31
2023/12/24 21:40:39;;;;;;;2.67;0.80;;;8.50;99.90;;;;;;2602860;54;20030;31
2023/12/24 21:43:15;;;;;;;1.40;0.68;;;8.60;99.90;;;;;;2602949;54;20030;31
2023/12/24 21:45:53;;;;;;;2.97;0.83;;;8.60;99.90;;;;;;2603197;54;20758;31
2023/12/24 21:48:29;;;;;;;2.35;0.70;;;8.60;99.90;;;;;;2602975;54;20234;31
2023/12/24 21:51:05;;;;;;;3.30;0.95;;;8.60;99.90;;;;;;2701604;39;21315;31
2023/12/24 21:53:41;;;;;;;2.47;1.10;;;8.60;99.90;;;;;;2701494;39;20405;31
2023/12/24 21:56:16;;;;;;;4.78;1.38;;;8.60;99.90;;;;;;2602851;54;20862;31
2023/12/24 21:58:51;;;;;;;3.78;1.48;;;8.60;99.90;;;;;;2602810;54;20031;31
2023/12/24 22:01:28;;;;;;;2.85;1.10;;;8.60;99.90;;;;;;2603038;54;21008;31
2023/12/24 22:04:09;;;;;;;3.70;1.45;;;8.70;99.90;;;;;;2602893;54;20061;31
2023/12/24 22:06:45;;;;;;;4.15;1.40;;;8.70;99.90;;;;;;2621649;46;20030;31
2023/12/24 22:09:20;;;;;;;2.93;1.10;;;8.70;99.90;;;;;;2603052;54;20027;31
2023/12/24 22:11:56;;;;;;;1.98;0.60;;;8.80;99.90;;;;;;2602979;54;20256;31
2023/12/24 22:14:32;;;;;;;3.17;0.88;;;8.80;99.90;;;;;;2602832;54;20089;31
2023/12/24 22:17:09;;;;;;;2.55;1.00;;;8.90;99.90;;;;;;2621451;46;20845;31
2023/12/24 22:19:45;;;;;;;2.40;1.10;;;8.90;99.90;;;;;;2701331;39;20405;31
2023/12/24 22:22:20;;;;;;;2.30;0.80;;;9.00;99.90;;;;;;2603087;54;20915;31
2023/12/24 22:24:55;;;;;;;0.82;0.45;;;9.10;99.90;;;;;;2621618;46;20903;31
2023/12/24 22:27:31;;;;;;;1.73;0.43;;;9.10;99.90;;;;;;2602885;54;20030;31
2023/12/24 22:30:08;;;;;;;0.77;0.43;;;9.20;99.90;;;;;;2621123;46;20026;31
2023/12/24 22:32:46;;;;;;;0.90;0.25;;;9.30;99.90;;;;;;2602775;54;20033;31
2023/12/24 22:35:23;;;;;;;1.55;0.55;;;9.30;99.90;;;;;;2621028;46;20832;31
2023/12/24 22:37:58;;;;;;;0.80;0.20;;;9.40;99.90;;;;;;2620813;46;20104;31
2023/12/24 22:40:33;;;;;;;1.10;0.20;;;9.40;99.90;;;;;;2602687;54;20928;31
2023/12/24 22:43:08;;;;;;;0.60;0.27;;;9.50;99.90;;;;;;2602902;54;20767;31
2023/12/24 22:45:43;;;;;;;1.40;0.40;;;9.50;99.90;;;;;;2602794;54;20798;31
2023/12/24 22:48:28;;;;;;;1.30;0.50;;;9.60;99.90;;;;;;2621348;46;20070;31
2023/12/24 22:51:04;;;;;;;0.90;0.20;;;9.60;99.90;;;;;;2602811;54;20325;31
2023/12/24 22:53:40;;;;;;;;;;;9.70;99.90;;;;;;2602716;54;20867;31
2023/12/24 22:56:15;;;;;;;1.77;0.30;;;9.70;99.90;;;;;;2602571;54;19934;31
2023/12/24 22:58:51;;;;;;;1.27;0.40;;;9.80;99.90;;;;;;2602569;54;21088;31
2023/12/24 23:01:27;;;;;;;0.82;0.30;;;9.80;99.90;;;;;;2602805;54;21006;31
2023/12/24 23:04:06;;;;;;;2.25;0.40;;;9.80;99.90;;;;;;2719632;39;22328;31
2023/12/24 23:06:41;;;;;;;0.80;0.30;;;9.90;99.90;;;;;;2602931;54;20751;31
2023/12/24 23:09:17;;;;;;;0.85;0.30;;;9.90;99.90;;;;;;2602827;54;20110;31
2023/12/24 23:11:52;;;;;;;;;;;9.90;99.90;;;;;;2602523;54;20105;31
2023/12/24 23:14:26;;;;;;;0.73;0.22;;;10.00;99.90;;;;;;2602796;54;19946;31
2023/12/24 23:17:02;;;;;;;1.20;0.20;;;10.10;99.90;;;;;;2602704;54;20026;31
2023/12/24 23:19:39;;;;;;;1.60;0.30;;;10.10;99.90;;;;;;2602644;54;20051;31
2023/12/24 23:22:16;;;;;;;0.60;0.13;;;10.10;99.90;;;;;;2602591;54;20031;31
2023/12/24 23:24:51;;;;;;;;;;;10.20;99.90;;;;;;2603023;54;20033;31
2023/12/24 23:27:27;;;;;;;0.63;0.10;;;10.30;99.90;;;;;;2621241;46;19935;31
2023/12/24 23:30:02;;;;;;;1.08;0.30;;;10.30;99.90;;;;;;2602527;54;20033;31
2023/12/24 23:32:38;;;;;;;0.60;0.20;;;10.30;99.90;;;;;;2602579;54;20777;31
2023/12/24 23:35:17;;;;;;;1.05;0.10;;;10.30;99.90;;;;;;2620736;46;20034;31
2023/12/24 23:38:04;;;;;;;0.45;0.08;;;10.40;99.90;;;;;;2602454;54;20026;31
2023/12/24 23:40:38;;;;;;;0.55;0.20;;;10.50;99.90;;;;;;2620748;47;21155;31
2023/12/24 23:43:13;;;;;;;0.77;0.10;;;10.50;99.90;;;;;;2602463;54;20096;31
2023/12/24 23:45:50;;;;;;;;;;;10.50;99.90;;;;;;2602461;54;21204;31
2023/12/24 23:48:28;;;;;;;0.52;0.10;;;10.60;99.90;;;;;;2621199;46;19941;31
2023/12/24 23:51:07;;;;;;;0.57;0.30;;;10.60;99.90;;;;;;2602694;54;20030;31
2023/12/24 23:53:41;;;;;;;0.60;0.20;;;10.60;99.90;;;;;;2602550;54;20851;31
2023/12/24 23:56:16;;;;;;;0.50;0.20;;;10.60;99.90;;;;;;2621225;46;20030;31
2023/12/24 23:58:54;;;;;;;0.40;0.00;;;10.70;99.90;;;;;;2602761;54;20030;31
